Time;durP1;ratioP1;P1;durP2;ratioP2;P2;SDS_P1;SDS_P2;PMS_P1;PMS_P2;Temp;Humidity;BMP_temperature;BMP_pressure;BME280_temperature;BME280_humidity;BME280_pressure;Samples;Min_cycle;Max_cycle;Signal;HPM_P1;HPM_P2
2019/10/30 00:00:02;;;;;;;3.60;3.30;;;;;;;20.40;53.57;101434.14;;;;-60
2019/10/30 00:03:02;;;;;;;3.45;3.15;;;;;;;20.40;53.51;101432.13;;;;-59
2019/10/30 00:06:02;;;;;;;3.55;3.25;;;;;;;20.38;53.47;101436.56;;;;-60
2019/10/30 00:09:02;;;;;;;3.69;3.39;;;;;;;20.37;53.41;101435.66;;;;-60
2019/10/30 00:12:02;;;;;;;3.89;3.30;;;;;;;20.36;53.43;101430.34;;;;-60
2019/10/30 00:15:02;;;;;;;3.58;3.28;;;;;;;20.34;53.52;101429.63;;;;-60
2019/10/30 00:18:02;;;;;;;3.45;3.17;;;;;;;20.34;53.53;101433.25;;;;-59
2019/10/30 00:21:02;;;;;;;3.76;3.46;;;;;;;20.33;53.56;101432.59;;;;-60
2019/10/30 00:24:02;;;;;;;3.49;3.19;;;;;;;20.32;53.40;101436.89;;;;-59
2019/10/30 00:27:02;;;;;;;3.53;3.23;;;;;;;20.31;53.56;101437.51;;;;-60
2019/10/30 00:30:02;;;;;;;3.65;3.35;;;;;;;20.31;53.56;101436.38;;;;-59
2019/10/30 00:33:02;;;;;;;3.49;3.19;;;;;;;20.29;53.73;101440.23;;;;-61
2019/10/30 00:36:02;;;;;;;3.42;3.12;;;;;;;20.27;53.46;101438.48;;;;-59
2019/10/30 00:39:02;;;;;;;3.58;3.28;;;;;;;20.27;53.61;101446.39;;;;-60
2019/10/30 00:42:02;;;;;;;3.60;3.30;;;;;;;20.26;53.53;101448.50;;;;-63
2019/10/30 00:45:02;;;;;;;3.79;3.44;;;;;;;20.26;53.64;101452.36;;;;-63
2019/10/30 00:48:02;;;;;;;3.47;3.17;;;;;;;20.25;53.47;101450.12;;;;-63
2019/10/30 00:51:02;;;;;;;3.39;3.09;;;;;;;20.23;53.62;101449.84;;;;-60
2019/10/30 00:54:02;;;;;;;3.49;3.19;;;;;;;20.23;53.56;101444.69;;;;-59
2019/10/30 00:57:02;;;;;;;3.69;3.39;;;;;;;20.21;53.62;101448.72;;;;-59
2019/10/30 01:00:02;;;;;;;3.60;3.30;;;;;;;20.21;53.63;101452.86;;;;-58
2019/10/30 01:03:02;;;;;;;3.45;3.15;;;;;;;20.19;53.68;101451.78;;;;-58
2019/10/30 01:06:02;;;;;;;3.53;3.23;;;;;;;20.19;53.63;101448.48;;;;-55
2019/10/30 01:09:02;;;;;;;3.43;3.13;;;;;;;20.18;53.68;101451.27;;;;-58
2019/10/30 01:12:02;;;;;;;3.75;3.45;;;;;;;20.17;53.68;101450.78;;;;-58
2019/10/30 01:15:02;;;;;;;3.73;3.41;;;;;;;20.16;53.68;101448.48;;;;-59
2019/10/30 01:18:02;;;;;;;3.43;3.15;;;;;;;20.15;53.67;101448.36;;;;-63
2019/10/30 01:21:02;;;;;;;3.64;3.34;;;;;;;20.14;53.76;101447.47;;;;-55
2019/10/30 01:24:02;;;;;;;3.37;3.07;;;;;;;20.13;53.71;101444.55;;;;-55
2019/10/30 01:27:02;;;;;;;3.78;3.48;;;;;;;20.12;53.68;101438.03;;;;-55
2019/10/30 01:30:02;;;;;;;3.39;3.09;;;;;;;20.11;53.79;101436.45;;;;-55
2019/10/30 01:33:02;;;;;;;3.49;3.19;;;;;;;20.10;53.71;101434.89;;;;-55
2019/10/30 01:36:02;;;;;;;3.46;3.17;;;;;;;20.09;53.75;101435.44;;;;-58
2019/10/30 01:39:03;;;;;;;3.54;3.24;;;;;;;20.08;53.79;101435.05;;;;-58
2019/10/30 01:42:02;;;;;;;3.49;3.19;;;;;;;20.07;53.87;101432.74;;;;-57
2019/10/30 01:45:02;;;;;;;3.41;3.11;;;;;;;20.08;53.79;101435.77;;;;-58
2019/10/30 01:48:22;;;;;;;3.54;3.24;;;;;;;20.07;53.83;101436.33;;;;-63
2019/10/30 01:51:02;;;;;;;3.42;3.12;;;;;;;20.05;53.77;101432.63;;;;-64
2019/10/30 01:54:02;;;;;;;3.40;3.10;;;;;;;20.04;53.77;101431.62;;;;-64
2019/10/30 01:57:02;;;;;;;3.19;2.97;;;;;;;20.04;53.79;101431.35;;;;-62
2019/10/30 02:00:02;;;;;;;3.78;3.25;;;;;;;20.02;53.81;101428.16;;;;-63
2019/10/30 02:03:02;;;;;;;3.63;3.33;;;;;;;20.02;53.78;101431.36;;;;-63
2019/10/30 02:06:02;;;;;;;3.53;3.21;;;;;;;20.01;53.72;101429.45;;;;-63
2019/10/30 02:09:02;;;;;;;3.58;3.26;;;;;;;20.02;53.84;101430.23;;;;-63
2019/10/30 02:12:02;;;;;;;3.24;3.00;;;;;;;20.00;53.70;101431.95;;;;-64
2019/10/30 02:15:02;;;;;;;3.57;3.27;;;;;;;19.99;53.82;101430.51;;;;-54
2019/10/30 02:18:02;;;;;;;3.60;3.30;;;;;;;19.99;53.81;101433.69;;;;-54
2019/10/30 02:21:02;;;;;;;3.30;3.00;;;;;;;19.98;53.77;101431.49;;;;-53
2019/10/30 02:24:02;;;;;;;3.26;2.96;;;;;;;19.97;53.78;101429.56;;;;-55
2019/10/30 02:27:02;;;;;;;3.42;3.12;;;;;;;19.97;53.73;101430.79;;;;-56
2019/10/30 02:34:02;;;;;;;3.19;2.89;;;;;;;19.96;53.72;101420.34;;;;-53
2019/10/30 02:37:02;;;;;;;3.36;3.09;;;;;;;19.95;53.74;101422.91;;;;-54
2019/10/30 02:40:02;;;;;;;3.27;3.07;;;;;;;19.94;53.68;101423.58;;;;-55
2019/10/30 02:43:02;;;;;;;3.40;3.10;;;;;;;19.94;53.78;101426.21;;;;-55
2019/10/30 02:46:02;;;;;;;3.35;3.09;;;;;;;19.93;53.83;101425.30;;;;-55
2019/10/30 02:49:02;;;;;;;3.30;3.00;;;;;;;19.92;53.68;101423.06;;;;-55
2019/10/30 02:52:02;;;;;;;3.27;2.97;;;;;;;19.92;53.73;101424.25;;;;-56
2019/10/30 02:55:02;;;;;;;3.14;2.84;;;;;;;19.91;53.82;101421.11;;;;-54
2019/10/30 02:58:02;;;;;;;3.25;2.97;;;;;;;19.89;53.81;101426.20;;;;-55
2019/10/30 03:01:02;;;;;;;3.29;2.99;;;;;;;19.89;53.84;101425.19;;;;-56
2019/10/30 03:04:02;;;;;;;3.35;2.97;;;;;;;19.89;53.81;101431.00;;;;-56
2019/10/30 03:07:02;;;;;;;3.34;3.04;;;;;;;19.88;53.83;101434.40;;;;-60
2019/10/30 03:10:02;;;;;;;3.18;2.90;;;;;;;19.88;53.82;101435.28;;;;-60
2019/10/30 03:13:02;;;;;;;3.07;2.85;;;;;;;19.86;53.83;101435.34;;;;-60
2019/10/30 03:16:02;;;;;;;3.00;2.80;;;;;;;19.86;53.83;101435.00;;;;-59
2019/10/30 03:19:02;;;;;;;3.36;3.06;;;;;;;19.85;53.89;101430.26;;;;-59
2019/10/30 03:22:02;;;;;;;3.31;3.01;;;;;;;19.86;53.77;101431.38;;;;-60
2019/10/30 03:25:02;;;;;;;2.99;2.79;;;;;;;19.85;53.76;101429.91;;;;-60
2019/10/30 03:28:02;;;;;;;3.11;2.91;;;;;;;19.84;53.83;101429.20;;;;-60
2019/10/30 03:31:02;;;;;;;3.09;2.89;;;;;;;19.83;53.80;101433.50;;;;-60
2019/10/30 03:34:02;;;;;;;3.08;2.88;;;;;;;19.83;53.79;101429.46;;;;-60
2019/10/30 03:37:02;;;;;;;3.24;3.02;;;;;;;19.83;53.89;101431.59;;;;-59
2019/10/30 03:40:02;;;;;;;3.25;2.97;;;;;;;19.83;53.88;101429.40;;;;-59
2019/10/30 03:43:02;;;;;;;3.07;2.86;;;;;;;19.81;53.83;101431.47;;;;-60
2019/10/30 03:46:02;;;;;;;2.96;2.76;;;;;;;19.81;53.87;101432.38;;;;-59
2019/10/30 03:49:02;;;;;;;3.33;3.03;;;;;;;19.81;53.84;101431.02;;;;-60
2019/10/30 03:52:02;;;;;;;3.10;2.87;;;;;;;19.79;53.86;101434.38;;;;-59
2019/10/30 03:55:02;;;;;;;3.01;2.81;;;;;;;19.80;53.92;101436.60;;;;-55
2019/10/30 03:58:02;;;;;;;2.89;2.69;;;;;;;19.79;53.93;101431.36;;;;-54
2019/10/30 04:01:02;;;;;;;3.29;2.99;;;;;;;19.79;53.85;101431.08;;;;-55
2019/10/30 04:04:02;;;;;;;2.97;2.77;;;;;;;19.79;53.92;101429.84;;;;-58
2019/10/30 04:07:02;;;;;;;2.90;2.69;;;;;;;19.78;53.90;101431.28;;;;-60
2019/10/30 04:10:02;;;;;;;3.22;2.92;;;;;;;19.77;53.89;101427.38;;;;-60
2019/10/30 04:13:02;;;;;;;3.16;2.86;;;;;;;19.77;53.88;101431.91;;;;-60
2019/10/30 04:16:02;;;;;;;3.06;2.81;;;;;;;19.76;53.88;101426.21;;;;-60
2019/10/30 04:19:02;;;;;;;3.14;2.89;;;;;;;19.76;53.87;101428.16;;;;-60
2019/10/30 04:22:02;;;;;;;3.09;2.89;;;;;;;19.75;53.83;101425.80;;;;-60
2019/10/30 04:25:02;;;;;;;3.08;2.82;;;;;;;19.75;53.88;101422.84;;;;-60
2019/10/30 04:28:02;;;;;;;3.03;2.78;;;;;;;19.74;53.86;101417.48;;;;-60
2019/10/30 04:31:02;;;;;;;2.85;2.65;;;;;;;19.73;53.91;101418.19;;;;-59
2019/10/30 04:34:02;;;;;;;2.87;2.67;;;;;;;19.73;53.86;101411.67;;;;-60
2019/10/30 04:37:02;;;;;;;3.11;2.71;;;;;;;19.72;53.88;101406.23;;;;-60
2019/10/30 04:41:02;;;;;;;2.89;2.69;;;;;;;19.73;53.86;101405.74;;;;-60
2019/10/30 04:44:02;;;;;;;2.99;2.79;;;;;;;19.72;53.83;101401.77;;;;-60
2019/10/30 04:47:02;;;;;;;2.75;2.55;;;;;;;19.72;53.79;101401.88;;;;-60
2019/10/30 04:50:02;;;;;;;3.19;2.89;;;;;;;19.71;53.78;101400.81;;;;-60
2019/10/30 04:53:02;;;;;;;2.78;2.58;;;;;;;19.71;53.94;101403.39;;;;-59
2019/10/30 04:56:02;;;;;;;2.73;2.52;;;;;;;19.72;53.78;101402.06;;;;-60
2019/10/30 04:59:02;;;;;;;3.05;2.71;;;;;;;19.71;53.81;101403.51;;;;-59
2019/10/30 05:02:02;;;;;;;2.85;2.65;;;;;;;19.71;53.77;101402.11;;;;-60
2019/10/30 05:05:02;;;;;;;2.83;2.63;;;;;;;19.70;53.77;101403.66;;;;-60
2019/10/30 05:08:02;;;;;;;3.10;2.74;;;;;;;19.71;53.78;101404.84;;;;-60
2019/10/30 05:11:02;;;;;;;3.10;2.82;;;;;;;19.70;53.74;101400.98;;;;-59
2019/10/30 05:14:02;;;;;;;2.91;2.58;;;;;;;19.70;53.77;101405.00;;;;-60
2019/10/30 05:17:18;;;;;;;2.87;2.67;;;;;;;19.69;53.77;101406.12;;;;-60
2019/10/30 05:20:02;;;;;;;2.99;2.50;;;;;;;19.69;53.76;101414.56;;;;-61
2019/10/30 05:23:02;;;;;;;2.59;2.39;;;;;;;19.68;53.73;101411.59;;;;-59
2019/10/30 05:26:02;;;;;;;2.81;2.61;;;;;;;19.69;53.75;101416.63;;;;-60
2019/10/30 05:29:02;;;;;;;2.81;2.61;;;;;;;19.69;53.76;101419.92;;;;-60
2019/10/30 05:32:02;;;;;;;2.87;2.60;;;;;;;19.69;53.73;101418.98;;;;-61
2019/10/30 05:35:02;;;;;;;2.80;2.60;;;;;;;19.68;53.71;101421.25;;;;-60
2019/10/30 05:38:02;;;;;;;2.81;2.57;;;;;;;19.69;53.67;101428.02;;;;-60
2019/10/30 05:41:02;;;;;;;2.75;2.55;;;;;;;19.68;53.71;101430.59;;;;-60
2019/10/30 05:44:02;;;;;;;2.70;2.49;;;;;;;19.70;53.74;101437.41;;;;-55
2019/10/30 05:47:02;;;;;;;2.87;2.61;;;;;;;19.67;53.86;101441.14;;;;-54
2019/10/30 05:50:02;;;;;;;7.82;2.71;;;;;;;19.67;53.88;101443.86;;;;-61
2019/10/30 05:53:02;;;;;;;3.12;2.83;;;;;;;19.67;53.94;101450.47;;;;-54
2019/10/30 05:56:02;;;;;;;2.97;2.47;;;;;;;19.68;53.89;101453.66;;;;-52
2019/10/30 05:59:02;;;;;;;3.24;2.73;;;;;;;19.69;53.55;101456.00;;;;-53
2019/10/30 06:02:02;;;;;;;2.68;2.47;;;;;;;19.68;53.47;101455.61;;;;-52
2019/10/30 06:05:02;;;;;;;5.91;2.52;;;;;;;19.68;53.57;101459.14;;;;-60
2019/10/30 06:08:02;;;;;;;2.94;2.65;;;;;;;19.67;53.71;101463.76;;;;-53
2019/10/30 06:11:02;;;;;;;3.46;2.58;;;;;;;19.67;53.67;101467.51;;;;-59
2019/10/30 06:14:02;;;;;;;3.53;2.60;;;;;;;19.66;53.69;101474.21;;;;-54
2019/10/30 06:17:02;;;;;;;2.69;2.48;;;;;;;19.65;53.74;101474.88;;;;-59
2019/10/30 06:20:35;;;;;;;2.71;2.45;;;;;;;19.66;53.64;101479.58;;;;-54
2019/10/30 06:23:02;;;;;;;3.23;2.59;;;;;;;19.64;53.72;101472.97;;;;-53
2019/10/30 06:26:02;;;;;;;3.65;2.50;;;;;;;19.65;53.67;101470.05;;;;-53
2019/10/30 06:29:02;;;;;;;2.73;2.50;;;;;;;19.65;53.64;101472.91;;;;-53
2019/10/30 06:32:02;;;;;;;2.53;2.33;;;;;;;19.66;53.69;101477.83;;;;-59
2019/10/30 06:35:02;;;;;;;2.58;2.38;;;;;;;19.66;53.62;101483.09;;;;-52
2019/10/30 06:38:02;;;;;;;2.62;2.42;;;;;;;19.66;53.79;101479.84;;;;-52
2019/10/30 06:41:02;;;;;;;2.45;2.25;;;;;;;19.69;53.71;101485.01;;;;-48
2019/10/30 06:44:02;;;;;;;3.75;2.40;;;;;;;19.67;53.55;101491.47;;;;-49
2019/10/30 06:47:02;;;;;;;2.54;2.34;;;;;;;19.68;53.74;101490.75;;;;-48
2019/10/30 06:50:02;;;;;;;2.55;2.30;;;;;;;19.69;53.68;101489.36;;;;-53
2019/10/30 06:53:02;;;;;;;2.95;2.50;;;;;;;19.68;53.56;101493.77;;;;-53
2019/10/30 06:56:02;;;;;;;4.07;2.49;;;;;;;19.66;53.52;101495.33;;;;-51
2019/10/30 06:59:02;;;;;;;3.43;2.48;;;;;;;19.67;53.62;101497.73;;;;-52
2019/10/30 07:02:02;;;;;;;2.88;2.39;;;;;;;19.66;53.61;101492.41;;;;-62
2019/10/30 07:05:02;;;;;;;2.93;2.42;;;;;;;19.64;53.54;101492.57;;;;-51
2019/10/30 07:12:02;;;;;;;2.88;2.41;;;;;;;19.63;53.49;101499.55;;;;-54
2019/10/30 07:15:02;;;;;;;3.03;2.33;;;;;;;19.63;53.66;101500.89;;;;-51
2019/10/30 07:18:02;;;;;;;2.72;2.39;;;;;;;19.63;53.54;101500.95;;;;-51
2019/10/30 07:21:02;;;;;;;4.07;2.43;;;;;;;19.68;53.53;101503.38;;;;-58
2019/10/30 07:24:02;;;;;;;3.25;2.49;;;;;;;19.68;53.72;101512.04;;;;-58
2019/10/30 07:27:02;;;;;;;3.67;2.33;;;;;;;19.70;53.70;101510.20;;;;-57
2019/10/30 07:30:02;;;;;;;3.92;2.20;;;;;;;19.78;53.83;101519.85;;;;-57
2019/10/30 07:33:02;;;;;;;3.70;2.45;;;;;;;19.82;53.94;101521.72;;;;-58
2019/10/30 07:36:02;;;;;;;4.08;2.32;;;;;;;19.87;53.83;101525.54;;;;-51
2019/10/30 07:39:02;;;;;;;2.52;2.28;;;;;;;19.91;53.94;101522.09;;;;-51
2019/10/30 07:42:02;;;;;;;2.98;2.34;;;;;;;19.96;53.83;101523.89;;;;-51
2019/10/30 07:45:02;;;;;;;2.56;2.10;;;;;;;20.01;54.10;101528.39;;;;-50
2019/10/30 07:48:02;;;;;;;2.90;2.13;;;;;;;20.07;54.08;101536.95;;;;-51
2019/10/30 07:51:02;;;;;;;2.41;2.13;;;;;;;20.11;54.26;101536.86;;;;-52
2019/10/30 07:54:02;;;;;;;2.51;2.08;;;;;;;20.16;54.32;101543.59;;;;-61
2019/10/30 07:57:02;;;;;;;2.20;2.00;;;;;;;20.21;54.15;101546.29;;;;-47
2019/10/30 08:00:02;;;;;;;2.41;1.97;;;;;;;20.25;54.22;101542.17;;;;-46
2019/10/30 08:03:02;;;;;;;2.32;2.05;;;;;;;20.30;54.08;101542.69;;;;-46
2019/10/30 08:06:02;;;;;;;3.01;1.95;;;;;;;20.33;54.33;101541.13;;;;-50
2019/10/30 08:09:05;;;;;;;2.23;2.03;;;;;;;20.37;54.13;101539.51;;;;-51
2019/10/30 08:12:07;;;;;;;2.28;2.05;;;;;;;20.42;53.98;101540.64;;;;-51
2019/10/30 08:15:02;;;;;;;2.33;1.97;;;;;;;20.45;54.15;101541.22;;;;-49
2019/10/30 08:18:02;;;;;;;2.81;2.02;;;;;;;20.49;54.13;101546.42;;;;-49
2019/10/30 08:21:02;;;;;;;4.04;1.94;;;;;;;20.52;54.09;101545.04;;;;-51
2019/10/30 08:24:02;;;;;;;3.39;1.90;;;;;;;20.55;54.14;101548.69;;;;-52
2019/10/30 08:27:02;;;;;;;4.17;2.15;;;;;;;20.59;53.71;101553.10;;;;-49
2019/10/30 08:30:02;;;;;;;3.19;1.93;;;;;;;20.61;53.91;101542.83;;;;-51
2019/10/30 08:33:02;;;;;;;3.32;1.97;;;;;;;20.63;53.88;101539.23;;;;-50
2019/10/30 08:36:02;;;;;;;2.11;1.90;;;;;;;20.66;53.90;101540.42;;;;-51
2019/10/30 08:39:02;;;;;;;4.79;1.98;;;;;;;20.70;54.04;101541.87;;;;-64
2019/10/30 08:42:02;;;;;;;3.15;2.17;;;;;;;20.73;53.62;101537.92;;;;-58
2019/10/30 08:45:02;;;;;;;3.89;2.21;;;;;;;20.76;53.91;101539.70;;;;-52
2019/10/30 08:48:02;;;;;;;3.87;2.01;;;;;;;20.77;53.90;101539.20;;;;-52
2019/10/30 08:51:02;;;;;;;2.51;2.13;;;;;;;20.78;53.88;101541.22;;;;-52
2019/10/30 08:54:02;;;;;;;3.09;1.96;;;;;;;20.80;53.96;101538.34;;;;-60
2019/10/30 08:57:02;;;;;;;2.38;2.01;;;;;;;20.80;54.08;101533.42;;;;-59
2019/10/30 09:00:02;;;;;;;3.90;2.10;;;;;;;20.81;54.02;101533.20;;;;-49
2019/10/30 09:03:02;;;;;;;2.11;1.91;;;;;;;20.81;53.96;101530.28;;;;-58
2019/10/30 09:06:02;;;;;;;2.88;1.90;;;;;;;20.84;54.01;101529.67;;;;-60
2019/10/30 09:09:03;;;;;;;3.09;2.05;;;;;;;20.84;54.00;101530.24;;;;-50
2019/10/30 09:12:06;;;;;;;2.70;1.88;;;;;;;20.84;53.91;101527.20;;;;-51
2019/10/30 09:15:03;;;;;;;2.33;1.95;;;;;;;20.85;53.86;101528.33;;;;-50
2019/10/30 09:18:02;;;;;;;2.55;1.77;;;;;;;20.85;53.81;101522.78;;;;-51
2019/10/30 09:21:02;;;;;;;2.42;1.90;;;;;;;20.86;53.88;101525.02;;;;-52
2019/10/30 09:24:02;;;;;;;2.79;1.85;;;;;;;20.85;53.84;101520.55;;;;-52
2019/10/30 09:27:02;;;;;;;2.09;1.86;;;;;;;20.87;53.97;101524.02;;;;-54
2019/10/30 09:30:02;;;;;;;2.72;1.90;;;;;;;20.87;53.83;101520.05;;;;-52
2019/10/30 09:33:02;;;;;;;3.27;1.80;;;;;;;20.88;53.83;101515.69;;;;-50
2019/10/30 09:36:02;;;;;;;2.10;1.90;;;;;;;20.88;53.81;101514.63;;;;-49
2019/10/30 09:39:02;;;;;;;2.01;1.81;;;;;;;20.89;53.84;101511.66;;;;-48
2019/10/30 09:42:02;;;;;;;4.97;1.89;;;;;;;20.90;53.64;101519.16;;;;-57
2019/10/30 09:45:02;;;;;;;2.31;1.80;;;;;;;20.89;53.75;101517.25;;;;-57
2019/10/30 09:48:02;;;;;;;2.31;1.92;;;;;;;20.88;53.79;101519.16;;;;-58
2019/10/30 09:51:02;;;;;;;2.69;1.96;;;;;;;20.87;53.82;101514.13;;;;-57
2019/10/30 09:54:02;;;;;;;2.19;1.89;;;;;;;20.85;53.69;101511.32;;;;-57
2019/10/30 09:57:02;;;;;;;2.80;1.77;;;;;;;20.84;53.77;101515.95;;;;-57
2019/10/30 10:00:02;;;;;;;2.05;1.88;;;;;;;20.83;53.73;101521.28;;;;-57
2019/10/30 10:03:02;;;;;;;1.99;1.80;;;;;;;20.83;53.70;101524.02;;;;-57
2019/10/30 10:06:02;;;;;;;1.77;1.67;;;;;;;20.81;53.73;101523.67;;;;-56
2019/10/30 10:09:02;;;;;;;2.07;1.87;;;;;;;20.81;53.73;101524.97;;;;-57
2019/10/30 10:12:02;;;;;;;2.89;1.95;;;;;;;20.81;53.62;101527.89;;;;-58
2019/10/30 10:15:02;;;;;;;2.53;1.75;;;;;;;20.80;53.60;101523.77;;;;-58
2019/10/30 10:18:02;;;;;;;1.89;1.79;;;;;;;20.79;53.64;101527.63;;;;-57
2019/10/30 10:21:02;;;;;;;1.99;1.77;;;;;;;20.80;53.62;101529.28;;;;-57
2019/10/30 10:24:02;;;;;;;2.56;1.69;;;;;;;20.79;53.54;101527.28;;;;-56
2019/10/30 10:27:02;;;;;;;1.85;1.67;;;;;;;20.78;53.63;101522.52;;;;-58
2019/10/30 10:30:02;;;;;;;1.84;1.74;;;;;;;20.78;53.60;101524.81;;;;-58
2019/10/30 10:33:02;;;;;;;2.10;1.90;;;;;;;20.78;53.55;101514.91;;;;-57
2019/10/30 10:36:02;;;;;;;2.19;1.87;;;;;;;20.79;53.51;101511.11;;;;-57
2019/10/30 10:39:02;;;;;;;2.00;1.80;;;;;;;20.78;53.53;101511.55;;;;-56
2019/10/30 10:42:01;;;;;;;1.92;1.77;;;;;;;20.79;53.52;101508.14;;;;-57
2019/10/30 10:45:01;;;;;;;1.89;1.79;;;;;;;20.79;53.49;101504.72;;;;-58
2019/10/30 10:48:02;;;;;;;1.80;1.70;;;;;;;20.79;53.51;101504.17;;;;-58
2019/10/30 10:51:02;;;;;;;2.00;1.78;;;;;;;20.80;53.50;101506.64;;;;-58
2019/10/30 10:54:02;;;;;;;2.18;1.70;;;;;;;20.79;53.45;101497.80;;;;-58
2019/10/30 10:57:02;;;;;;;1.94;1.81;;;;;;;20.79;53.46;101498.80;;;;-58
2019/10/30 11:00:02;;;;;;;1.99;1.69;;;;;;;20.79;53.48;101491.13;;;;-57
2019/10/30 11:03:02;;;;;;;1.90;1.70;;;;;;;20.79;53.48;101494.10;;;;-57
2019/10/30 11:06:02;;;;;;;1.92;1.70;;;;;;;20.79;53.48;101489.33;;;;-58
2019/10/30 11:09:02;;;;;;;2.13;1.77;;;;;;;20.79;53.52;101484.97;;;;-57
2019/10/30 11:12:02;;;;;;;1.97;1.80;;;;;;;20.79;53.44;101480.05;;;;-58
2019/10/30 11:15:02;;;;;;;1.79;1.69;;;;;;;20.79;53.45;101480.88;;;;-57
2019/10/30 11:18:02;;;;;;;1.84;1.71;;;;;;;20.79;53.49;101475.01;;;;-57
2019/10/30 11:21:02;;;;;;;1.83;1.72;;;;;;;20.79;53.40;101472.38;;;;-58
2019/10/30 11:24:01;;;;;;;1.92;1.82;;;;;;;20.79;53.39;101470.37;;;;-57
2019/10/30 11:27:01;;;;;;;2.01;1.90;;;;;;;20.79;53.40;101465.10;;;;-58
2019/10/30 11:30:02;;;;;;;2.10;1.90;;;;;;;20.79;53.50;101461.36;;;;-57
2019/10/30 11:33:02;;;;;;;1.87;1.68;;;;;;;20.79;53.50;101453.73;;;;-57
2019/10/30 11:36:02;;;;;;;1.87;1.71;;;;;;;20.79;53.46;101449.95;;;;-58
2019/10/30 11:39:02;;;;;;;1.92;1.72;;;;;;;20.78;53.51;101449.60;;;;-57
2019/10/30 11:42:02;;;;;;;2.16;1.75;;;;;;;20.79;53.44;101445.84;;;;-58
2019/10/30 11:45:02;;;;;;;1.92;1.68;;;;;;;20.78;53.43;101440.59;;;;-57
2019/10/30 11:48:02;;;;;;;1.88;1.70;;;;;;;20.79;53.37;101438.13;;;;-57
2019/10/30 11:51:02;;;;;;;1.88;1.78;;;;;;;20.78;53.53;101432.70;;;;-57
2019/10/30 11:54:02;;;;;;;2.33;1.75;;;;;;;20.78;53.48;101428.57;;;;-56
2019/10/30 11:57:02;;;;;;;1.86;1.74;;;;;;;20.78;53.46;101424.13;;;;-57
2019/10/30 12:00:02;;;;;;;1.83;1.71;;;;;;;20.77;53.46;101420.84;;;;-58
2019/10/30 12:03:01;;;;;;;2.05;1.77;;;;;;;20.77;53.46;101421.67;;;;-57
2019/10/30 12:09:06;;;;;;;1.80;1.70;;;;;;;20.77;53.41;101420.72;;;;-58
2019/10/30 12:12:02;;;;;;;1.95;1.78;;;;;;;20.77;53.56;101415.12;;;;-57
2019/10/30 12:15:02;;;;;;;1.71;1.61;;;;;;;20.77;53.48;101409.38;;;;-57
2019/10/30 12:18:02;;;;;;;1.90;1.75;;;;;;;20.77;53.51;101400.98;;;;-58
2019/10/30 12:21:01;;;;;;;1.89;1.72;;;;;;;20.76;53.38;101404.72;;;;-58
2019/10/30 12:24:01;;;;;;;2.16;1.71;;;;;;;20.76;53.46;101407.24;;;;-57
2019/10/30 12:27:02;;;;;;;2.03;1.83;;;;;;;20.75;53.57;101403.09;;;;-57
2019/10/30 12:30:02;;;;;;;2.29;1.92;;;;;;;20.76;53.53;101403.11;;;;-56
2019/10/30 12:33:02;;;;;;;1.95;1.85;;;;;;;20.76;53.35;101398.67;;;;-57
2019/10/30 12:36:02;;;;;;;1.71;1.61;;;;;;;20.76;53.42;101388.59;;;;-57
2019/10/30 12:39:02;;;;;;;1.95;1.80;;;;;;;20.76;53.46;101389.68;;;;-57
2019/10/30 12:42:01;;;;;;;1.87;1.76;;;;;;;20.76;53.47;101385.41;;;;-53
2019/10/30 12:45:02;;;;;;;1.75;1.65;;;;;;;20.76;53.44;101382.30;;;;-52
2019/10/30 12:48:02;;;;;;;1.84;1.73;;;;;;;20.76;53.40;101384.58;;;;-54
2019/10/30 12:51:02;;;;;;;2.01;1.85;;;;;;;20.76;53.48;101382.56;;;;-51
2019/10/30 12:54:02;;;;;;;1.89;1.73;;;;;;;20.75;53.51;101381.11;;;;-61
2019/10/30 12:57:02;;;;;;;1.93;1.71;;;;;;;20.74;53.52;101377.59;;;;-61
2019/10/30 13:00:02;;;;;;;1.85;1.69;;;;;;;20.75;53.64;101377.98;;;;-60
2019/10/30 13:03:01;;;;;;;1.88;1.70;;;;;;;20.75;53.40;101372.10;;;;-59
2019/10/30 13:06:02;;;;;;;2.22;1.88;;;;;;;20.75;53.56;101373.00;;;;-54
2019/10/30 13:09:02;;;;;;;1.81;1.71;;;;;;;20.75;53.49;101374.45;;;;-51
2019/10/30 13:12:02;;;;;;;1.93;1.80;;;;;;;20.75;53.45;101367.17;;;;-54
2019/10/30 13:15:02;;;;;;;2.07;1.87;;;;;;;20.75;53.52;101365.55;;;;-58
2019/10/30 13:18:02;;;;;;;2.45;1.86;;;;;;;20.75;53.31;101368.85;;;;-57
2019/10/30 13:21:01;;;;;;;1.98;1.81;;;;;;;20.75;53.41;101366.72;;;;-53
2019/10/30 13:24:01;;;;;;;1.87;1.77;;;;;;;20.76;53.51;101371.38;;;;-52
2019/10/30 13:27:01;;;;;;;1.89;1.79;;;;;;;20.76;53.37;101370.30;;;;-58
2019/10/30 13:30:02;;;;;;;1.81;1.71;;;;;;;20.75;53.50;101366.84;;;;-57
2019/10/30 13:33:02;;;;;;;1.90;1.80;;;;;;;20.76;53.48;101365.44;;;;-58
2019/10/30 13:36:02;;;;;;;1.85;1.72;;;;;;;20.76;53.57;101361.91;;;;-54
2019/10/30 13:39:02;;;;;;;2.10;1.90;;;;;;;20.77;53.47;101356.94;;;;-51
2019/10/30 13:42:01;;;;;;;2.56;1.85;;;;;;;20.78;53.58;101357.27;;;;-49
2019/10/30 13:45:02;;;;;;;2.40;1.84;;;;;;;20.81;53.58;101365.23;;;;-51
2019/10/30 13:48:02;;;;;;;3.57;1.90;;;;;;;20.81;53.63;101357.96;;;;-50
2019/10/30 13:51:02;;;;;;;3.65;1.85;;;;;;;20.84;53.80;101362.50;;;;-59
2019/10/30 13:54:02;;;;;;;1.99;1.80;;;;;;;20.86;53.83;101357.41;;;;-58
2019/10/30 13:57:02;;;;;;;3.01;1.84;;;;;;;20.87;53.80;101356.89;;;;-59
2019/10/30 14:00:01;;;;;;;1.93;1.79;;;;;;;20.88;53.84;101357.89;;;;-58
2019/10/30 14:03:02;;;;;;;1.76;1.66;;;;;;;20.89;53.81;101353.64;;;;-58
2019/10/30 14:07:01;;;;;;;3.51;1.91;;;;;;;20.91;53.93;101356.53;;;;-62
2019/10/30 14:10:02;;;;;;;14.29;2.62;;;;;;;20.90;53.04;101356.21;;;;-57
2019/10/30 14:13:02;;;;;;;22.01;2.47;;;;;;;20.95;53.65;101342.37;;;;-50
2019/10/30 14:16:02;;;;;;;5.83;2.32;;;;;;;20.98;53.54;101339.00;;;;-57
2019/10/30 14:19:02;;;;;;;6.87;2.10;;;;;;;20.99;53.63;101330.39;;;;-53
2019/10/30 14:22:01;;;;;;;5.94;2.15;;;;;;;21.02;53.77;101326.22;;;;-51
2019/10/30 14:25:01;;;;;;;4.95;2.12;;;;;;;21.03;53.63;101315.59;;;;-50
2019/10/30 14:28:02;;;;;;;3.68;2.16;;;;;;;21.04;53.69;101311.41;;;;-57
2019/10/30 14:31:02;;;;;;;3.47;2.01;;;;;;;21.04;53.62;101309.27;;;;-61
2019/10/30 14:34:02;;;;;;;8.93;2.40;;;;;;;21.05;53.84;101310.48;;;;-51
2019/10/30 14:37:02;;;;;;;10.77;2.24;;;;;;;21.06;53.52;101313.69;;;;-48
2019/10/30 14:40:01;;;;;;;3.53;2.29;;;;;;;21.05;53.41;101311.66;;;;-48
2019/10/30 14:43:01;;;;;;;5.46;2.31;;;;;;;21.06;53.44;101307.75;;;;-48
2019/10/30 14:46:01;;;;;;;3.57;2.10;;;;;;;21.07;53.49;101304.27;;;;-47
2019/10/30 14:49:01;;;;;;;2.73;2.00;;;;;;;21.07;53.34;101305.28;;;;-58
2019/10/30 14:52:02;;;;;;;3.98;2.30;;;;;;;21.07;53.31;101306.69;;;;-61
2019/10/30 14:55:02;;;;;;;4.09;2.18;;;;;;;21.07;53.28;101310.86;;;;-61
2019/10/30 14:58:02;;;;;;;2.20;1.97;;;;;;;21.07;53.29;101306.18;;;;-57
2019/10/30 15:01:01;;;;;;;2.95;2.21;;;;;;;21.08;53.24;101307.84;;;;-55
2019/10/30 15:04:01;;;;;;;2.99;2.30;;;;;;;21.08;53.23;101308.56;;;;-61
2019/10/30 15:07:01;;;;;;;3.45;2.20;;;;;;;21.09;53.05;101310.25;;;;-50
2019/10/30 15:10:01;;;;;;;2.51;2.13;;;;;;;21.10;53.16;101311.70;;;;-49
2019/10/30 15:13:02;;;;;;;4.09;2.30;;;;;;;21.10;53.25;101313.49;;;;-51
2019/10/30 15:16:02;;;;;;;3.96;2.20;;;;;;;21.10;53.19;101319.59;;;;-53
2019/10/30 15:19:02;;;;;;;2.53;2.33;;;;;;;21.12;53.17;101321.59;;;;-52
2019/10/30 15:22:01;;;;;;;4.27;2.12;;;;;;;21.10;53.04;101321.27;;;;-52
2019/10/30 15:25:01;;;;;;;2.89;2.17;;;;;;;21.10;53.12;101317.91;;;;-52
2019/10/30 15:28:01;;;;;;;3.27;2.15;;;;;;;21.09;53.12;101318.02;;;;-53
2019/10/30 15:31:02;;;;;;;3.13;2.04;;;;;;;21.10;53.13;101316.91;;;;-52
2019/10/30 15:34:02;;;;;;;2.41;2.12;;;;;;;21.08;53.08;101310.64;;;;-52
2019/10/30 15:37:02;;;;;;;2.55;2.06;;;;;;;21.09;53.11;101316.19;;;;-52
2019/10/30 15:40:01;;;;;;;3.75;2.29;;;;;;;21.08;53.02;101315.28;;;;-52
2019/10/30 15:43:01;;;;;;;2.51;1.82;;;;;;;21.08;53.15;101312.16;;;;-52
2019/10/30 15:46:01;;;;;;;2.52;2.09;;;;;;;21.08;53.05;101312.45;;;;-53
2019/10/30 15:49:02;;;;;;;2.55;2.07;;;;;;;21.07;53.06;101313.55;;;;-52
2019/10/30 15:52:02;;;;;;;2.49;2.27;;;;;;;21.07;53.11;101320.45;;;;-52
2019/10/30 15:55:02;;;;;;;2.39;2.12;;;;;;;21.06;53.06;101322.97;;;;-52
2019/10/30 15:58:01;;;;;;;2.69;2.11;;;;;;;21.06;53.05;101326.33;;;;-52
2019/10/30 16:01:01;;;;;;;2.31;2.11;;;;;;;21.07;53.09;101335.00;;;;-52
2019/10/30 16:04:01;;;;;;;2.74;2.04;;;;;;;21.05;53.04;101331.55;;;;-52
2019/10/30 16:07:01;;;;;;;2.19;1.99;;;;;;;21.06;52.88;101336.41;;;;-51
2019/10/30 16:10:01;;;;;;;2.36;2.10;;;;;;;21.05;53.01;101335.62;;;;-53
2019/10/30 16:13:02;;;;;;;3.13;2.19;;;;;;;21.06;53.05;101335.96;;;;-52
2019/10/30 16:16:02;;;;;;;3.41;2.01;;;;;;;21.05;53.13;101332.27;;;;-51
2019/10/30 16:19:01;;;;;;;3.41;2.33;;;;;;;21.06;53.13;101337.75;;;;-52
2019/10/30 16:22:16;;;;;;;2.43;2.01;;;;;;;21.07;53.12;101337.06;;;;-51
2019/10/30 16:25:02;;;;;;;3.54;2.20;;;;;;;21.09;53.26;101334.50;;;;-56
2019/10/30 16:28:02;;;;;;;6.11;2.49;;;;;;;21.09;53.04;101337.52;;;;-51
2019/10/30 16:31:02;;;;;;;3.67;2.19;;;;;;;21.09;53.11;101340.70;;;;-52
2019/10/30 16:34:02;;;;;;;2.39;2.19;;;;;;;21.10;53.18;101341.42;;;;-53
2019/10/30 16:37:02;;;;;;;3.29;2.10;;;;;;;21.10;53.16;101332.19;;;;-53
2019/10/30 16:40:01;;;;;;;2.55;2.12;;;;;;;21.11;53.15;101327.49;;;;-51
2019/10/30 16:43:01;;;;;;;2.99;2.30;;;;;;;21.12;53.15;101327.77;;;;-51
2019/10/30 16:46:01;;;;;;;2.78;2.30;;;;;;;21.13;53.15;101325.30;;;;-50
2019/10/30 16:49:01;;;;;;;2.43;2.10;;;;;;;21.14;53.22;101327.03;;;;-51
2019/10/30 16:52:01;;;;;;;2.98;2.15;;;;;;;21.14;53.21;101324.12;;;;-53
2019/10/30 16:55:02;;;;;;;3.91;2.42;;;;;;;21.15;52.82;101324.23;;;;-52